Terminal Aerodrome Forecast
Issued by NWS

Home | Current Version | Previous Version | Text Only | Print | Product List | Glossary On
Versions: 1 2 3 4 5 6 7 8 9 10 11 12 13 14
000
FTUS44 KTSA 031120
TAFFYV
TAF
KFYV 031120Z 0312/0412 VRB05KT P6SM VCTS SCT040CB BKN100
     FM031400 VRB05KT P6SM SCT015 BKN025
     FM031800 29005KT P6SM VCTS SCT025 BKN040CB
     FM040100 00000KT P6SM BKN100=

USA.gov is the U.S. government's official web portal to all federal, state and local government web resources and services.